Time;durP1;ratioP1;P1;durP2;ratioP2;P2;SDS_P1;SDS_P2;PMS_P1;PMS_P2;Temp;Humidity;BMP_temperature;BMP_pressure;BME280_temperature;BME280_humidity;BME280_pressure;Samples;Min_cycle;Max_cycle;Signal;HPM_P1;HPM_P2
2021/10/17 00:00:37;;;;;;;16.45;7.90;;;;;;;8.14;100.00;101990.75;5226452;28;20490;-71
2021/10/17 00:03:08;;;;;;;17.02;8.02;;;;;;;8.16;100.00;101986.31;5226115;28;20475;-71
2021/10/17 00:05:39;;;;;;;14.77;7.85;;;;;;;8.15;100.00;101982.84;5229345;28;20071;-71
2021/10/17 00:08:11;;;;;;;15.98;8.65;;;;;;;8.10;100.00;101974.41;5230583;28;20029;-71
2021/10/17 00:10:42;;;;;;;19.02;8.43;;;;;;;8.10;100.00;101984.03;5231210;28;20053;-71
2021/10/17 00:13:13;;;;;;;18.77;8.40;;;;;;;8.15;100.00;101989.84;5231753;28;20025;-71
2021/10/17 00:15:44;;;;;;;16.30;8.30;;;;;;;8.12;100.00;101977.81;5231733;28;20034;-71
2021/10/17 00:18:16;;;;;;;14.05;8.15;;;;;;;8.09;100.00;101972.75;5232092;28;20029;-71
2021/10/17 00:20:47;;;;;;;15.10;8.77;;;;;;;8.11;100.00;101977.91;5233009;28;20049;-71
2021/10/17 00:23:18;;;;;;;16.10;8.43;;;;;;;8.14;100.00;101977.69;5231302;28;20040;-71
2021/10/17 00:25:50;;;;;;;15.63;9.38;;;;;;;8.13;100.00;101978.63;5232382;28;20030;-71
2021/10/17 00:28:21;;;;;;;15.07;8.80;;;;;;;8.10;100.00;101977.03;5235296;28;20594;-71
2021/10/17 00:30:52;;;;;;;19.65;10.13;;;;;;;8.07;100.00;101968.53;5233883;28;20033;-71
2021/10/17 00:33:24;;;;;;;14.90;9.07;;;;;;;8.07;100.00;101966.78;5232925;28;20026;-71
2021/10/17 00:35:55;;;;;;;15.48;9.50;;;;;;;8.03;100.00;101958.28;5234335;28;20018;-71
2021/10/17 00:38:26;;;;;;;17.60;9.55;;;;;;;8.01;100.00;101965.34;5232768;28;20519;-70
2021/10/17 00:40:58;;;;;;;17.63;7.90;;;;;;;7.99;100.00;101962.00;5237806;28;20417;-71
2021/10/17 00:43:29;;;;;;;16.42;8.25;;;;;;;7.99;100.00;101964.59;5231342;28;20045;-72
2021/10/17 00:46:00;;;;;;;15.85;8.07;;;;;;;8.01;100.00;101967.13;5236212;28;20028;-71
2021/10/17 00:48:31;;;;;;;19.70;7.97;;;;;;;7.95;100.00;101976.13;5235017;28;20486;-71
2021/10/17 00:51:03;;;;;;;15.65;7.68;;;;;;;7.94;100.00;101979.66;5236142;28;20025;-71
2021/10/17 00:53:34;;;;;;;15.90;8.45;;;;;;;7.94;100.00;101984.03;5233683;28;20029;-71
2021/10/17 00:56:06;;;;;;;12.38;7.32;;;;;;;7.92;100.00;101980.69;5236405;28;20430;-71
2021/10/17 00:58:37;;;;;;;13.50;8.38;;;;;;;7.88;100.00;101972.19;5236514;28;20029;-71
2021/10/17 01:01:08;;;;;;;17.15;7.90;;;;;;;7.84;100.00;101967.19;5235265;28;20024;-70
2021/10/17 01:03:40;;;;;;;14.43;8.20;;;;;;;7.86;100.00;101965.38;5232619;28;20383;-71
2021/10/17 01:06:13;;;;;;;18.58;8.70;;;;;;;7.84;100.00;101955.03;5235030;28;20095;-71
2021/10/17 01:08:45;;;;;;;14.32;7.85;;;;;;;7.82;100.00;101956.88;5236011;28;20032;-71
2021/10/17 01:11:16;;;;;;;15.90;8.53;;;;;;;7.81;100.00;101957.81;5235220;28;20458;-71
2021/10/17 01:13:48;;;;;;;12.57;7.20;;;;;;;7.82;100.00;101963.84;5236113;28;20034;-71
2021/10/17 01:16:19;;;;;;;15.50;8.07;;;;;;;7.84;100.00;101962.00;5235789;28;20962;-71
2021/10/17 01:18:50;;;;;;;14.75;7.68;;;;;;;7.85;100.00;101950.66;5234174;28;20500;-70
2021/10/17 01:21:23;;;;;;;14.85;7.32;;;;;;;7.79;100.00;101955.25;5235159;28;20049;-70
2021/10/17 01:23:54;;;;;;;14.35;7.60;;;;;;;7.75;100.00;101950.31;5235479;28;20029;-70
2021/10/17 01:26:26;;;;;;;11.48;7.20;;;;;;;7.77;100.00;101953.69;5235716;28;20032;-70
2021/10/17 01:28:57;;;;;;;13.63;7.68;;;;;;;7.78;100.00;101950.13;5234090;28;20030;-70
2021/10/17 01:31:53;;;;;;;17.02;7.70;;;;;;;7.96;100.00;101953.50;5235729;28;20065;-70
2021/10/17 01:34:25;;;;;;;14.43;7.30;;;;;;;7.78;100.00;101944.91;5229779;28;20052;-70
2021/10/17 01:36:56;;;;;;;13.05;7.35;;;;;;;7.90;100.00;101946.00;5234054;28;20060;-70
2021/10/17 01:39:27;;;;;;;11.85;7.60;;;;;;;7.89;100.00;101941.72;5235363;28;20033;-70
2021/10/17 01:41:59;;;;;;;13.07;7.55;;;;;;;7.87;100.00;101949.63;5234645;28;20022;-70
2021/10/17 01:44:34;;;;;;;14.88;7.80;;;;;;;7.87;100.00;101943.56;5233759;28;20025;-70
2021/10/17 01:47:07;;;;;;;16.08;7.72;;;;;;;7.83;100.00;101937.66;5235765;28;20139;-70
2021/10/17 01:49:39;;;;;;;17.02;7.80;;;;;;;7.83;100.00;101932.44;5230308;28;20136;-70
2021/10/17 01:52:10;;;;;;;17.42;7.97;;;;;;;7.80;100.00;101930.00;5236222;28;20124;-70
2021/10/17 01:54:41;;;;;;;12.93;7.70;;;;;;;7.79;100.00;101933.56;5235729;28;20021;-70
2021/10/17 01:57:12;;;;;;;13.43;7.90;;;;;;;7.75;100.00;101929.44;5235083;28;20116;-70
2021/10/17 01:59:44;;;;;;;13.85;7.53;;;;;;;7.69;100.00;101928.03;5232195;28;20032;-70
2021/10/17 02:02:15;;;;;;;13.95;7.82;;;;;;;7.69;100.00;101932.38;5231484;28;20029;-70
2021/10/17 02:04:47;;;;;;;17.40;8.18;;;;;;;7.68;100.00;101936.75;5234619;28;20041;-70
2021/10/17 02:07:18;;;;;;;17.48;7.78;;;;;;;7.59;100.00;101926.00;5233336;28;20068;-70
2021/10/17 02:09:49;;;;;;;17.70;8.65;;;;;;;7.54;100.00;101927.09;5231840;28;20156;-70
2021/10/17 02:12:25;;;;;;;14.90;7.68;;;;;;;7.48;100.00;101930.03;5232707;28;20056;-70
2021/10/17 02:14:57;;;;;;;12.98;7.97;;;;;;;7.42;100.00;101930.34;5235096;28;20025;-70
2021/10/17 02:17:30;;;;;;;12.55;7.15;;;;;;;7.44;100.00;101933.72;5235135;28;20029;-70
2021/10/17 02:20:01;;;;;;;14.82;7.47;;;;;;;7.45;100.00;101932.78;5232021;28;20117;-70
2021/10/17 02:22:32;;;;;;;15.52;8.15;;;;;;;7.42;100.00;101935.56;5233353;28;20116;-70
2021/10/17 02:25:04;;;;;;;16.75;8.00;;;;;;;7.39;100.00;101929.69;5234386;28;20029;-70
2021/10/17 02:27:36;;;;;;;15.57;7.82;;;;;;;7.35;100.00;101930.75;5231874;28;20017;-70
2021/10/17 02:30:07;;;;;;;17.33;7.80;;;;;;;7.29;100.00;101924.13;5235080;28;20025;-70
2021/10/17 02:32:39;;;;;;;14.52;7.78;;;;;;;7.29;100.00;101935.38;5235291;28;20352;-70
2021/10/17 02:35:10;;;;;;;15.30;7.65;;;;;;;7.29;100.00;101931.94;5234598;28;20025;-70
2021/10/17 02:37:42;;;;;;;15.35;7.80;;;;;;;7.28;100.00;101932.88;5232519;28;20049;-70
2021/10/17 02:40:14;;;;;;;16.67;7.68;;;;;;;7.23;100.00;101916.63;5233980;28;20029;-71
2021/10/17 02:42:45;;;;;;;15.27;7.80;;;;;;;7.26;100.00;101919.91;5234844;28;20024;-70
2021/10/17 02:45:17;;;;;;;14.90;8.25;;;;;;;7.23;100.00;101924.44;5234737;28;20032;-70
2021/10/17 02:47:48;;;;;;;15.50;8.48;;;;;;;7.23;100.00;101919.22;5231964;28;20594;-70
2021/10/17 02:50:19;;;;;;;16.58;8.43;;;;;;;7.23;100.00;101924.44;5234349;28;20079;-70
2021/10/17 02:52:51;;;;;;;18.10;9.07;;;;;;;7.24;100.00;101920.94;5235294;28;20458;-70
2021/10/17 02:55:22;;;;;;;14.23;8.35;;;;;;;7.23;100.00;101929.66;5232685;28;20220;-70
2021/10/17 02:57:53;;;;;;;16.55;9.00;;;;;;;7.17;100.00;101917.81;5232466;28;20103;-70
2021/10/17 03:00:25;;;;;;;16.50;8.43;;;;;;;7.18;100.00;101922.09;5233078;28;20024;-70
2021/10/17 03:02:56;;;;;;;18.92;8.88;;;;;;;7.21;100.00;101931.53;5231658;28;20025;-70
2021/10/17 03:05:28;;;;;;;19.20;9.38;;;;;;;7.23;100.00;101930.50;5234960;28;20017;-70
2021/10/17 03:07:59;;;;;;;15.32;9.15;;;;;;;7.19;100.00;101928.13;5232946;28;20118;-70
2021/10/17 03:10:31;;;;;;;16.08;9.40;;;;;;;7.17;100.00;101915.19;5231282;28;20026;-71
2021/10/17 03:13:02;;;;;;;18.80;10.52;;;;;;;7.20;100.00;101914.22;5233733;28;20069;-70
2021/10/17 03:15:34;;;;;;;22.42;10.13;;;;;;;7.17;100.00;101914.38;5232622;28;20036;-70
2021/10/17 03:18:05;;;;;;;16.42;9.27;;;;;;;7.21;100.00;101911.50;5232305;28;20040;-70
2021/10/17 03:20:36;;;;;;;17.17;10.52;;;;;;;7.28;100.00;101909.41;5232866;28;20216;-70
2021/10/17 03:23:07;;;;;;;18.92;10.38;;;;;;;7.21;100.00;101905.44;5233720;28;20047;-70
2021/10/17 03:25:39;;;;;;;19.42;9.30;;;;;;;7.28;100.00;101902.44;5231708;28;20029;-70
2021/10/17 03:28:10;;;;;;;18.13;9.73;;;;;;;7.32;100.00;101909.16;5232720;28;20075;-70
2021/10/17 03:30:41;;;;;;;16.73;10.05;;;;;;;7.35;100.00;101900.34;5232294;28;20029;-70
2021/10/17 03:33:13;;;;;;;16.58;9.50;;;;;;;7.37;100.00;101900.25;5233574;28;20029;-70
2021/10/17 03:35:44;;;;;;;18.70;9.15;;;;;;;7.39;100.00;101907.06;5231206;28;20100;-70
2021/10/17 03:38:15;;;;;;;16.98;8.50;;;;;;;7.39;100.00;101911.44;5232537;28;20696;-70
2021/10/17 03:40:47;;;;;;;14.20;8.30;;;;;;;7.43;100.00;101910.34;5233599;28;20033;-71
2021/10/17 03:43:18;;;;;;;17.77;8.70;;;;;;;7.46;100.00;101915.38;5233881;28;20059;-70
2021/10/17 03:45:49;;;;;;;14.02;8.27;;;;;;;7.50;100.00;101917.75;5231635;28;20022;-70
2021/10/17 03:48:20;;;;;;;17.40;8.55;;;;;;;7.51;100.00;101910.78;5231946;28;20056;-70
2021/10/17 03:50:52;;;;;;;16.98;7.68;;;;;;;7.51;100.00;101916.00;5232177;28;20086;-70
2021/10/17 03:53:23;;;;;;;15.98;8.02;;;;;;;7.49;100.00;101910.84;5232217;28;20032;-70
2021/10/17 03:55:54;;;;;;;17.90;8.32;;;;;;;7.54;100.00;101916.66;5231182;28;20021;-70
2021/10/17 03:58:25;;;;;;;17.83;8.50;;;;;;;7.57;100.00;101918.25;5231125;28;20033;-70
2021/10/17 04:00:57;;;;;;;16.02;7.95;;;;;;;7.56;100.00;101913.97;5229755;28;20155;-70
2021/10/17 04:03:28;;;;;;;15.68;8.00;;;;;;;7.59;100.00;101915.56;5230898;28;20044;-70
2021/10/17 04:05:59;;;;;;;16.25;8.52;;;;;;;7.60;100.00;101912.84;5231263;28;20018;-71
2021/10/17 04:08:30;;;;;;;19.08;8.50;;;;;;;7.62;100.00;101910.19;5231471;28;20510;-70
2021/10/17 04:11:02;;;;;;;20.92;7.78;;;;;;;7.66;100.00;101903.88;5231083;28;20064;-70
2021/10/17 04:13:33;;;;;;;18.77;8.05;;;;;;;7.66;100.00;101909.09;5232517;28;20021;-70
2021/10/17 04:16:06;;;;;;;11.88;7.75;;;;;;;7.65;100.00;101904.78;5233053;28;20386;-71
2021/10/17 04:18:37;;;;;;;16.58;7.95;;;;;;;7.66;100.00;101906.47;5232131;28;20475;-70
2021/10/17 04:21:09;;;;;;;19.23;7.75;;;;;;;7.65;100.00;101904.78;5230927;28;20038;-70
2021/10/17 04:23:40;;;;;;;15.00;7.82;;;;;;;7.67;100.00;101903.78;5232011;28;20033;-70
2021/10/17 04:26:11;;;;;;;17.02;7.93;;;;;;;7.68;100.00;101900.22;5232597;28;20529;-70
2021/10/17 04:28:42;;;;;;;15.93;7.80;;;;;;;7.66;100.00;101896.06;5230409;28;20474;-70
2021/10/17 04:31:14;;;;;;;15.40;8.00;;;;;;;7.67;100.00;101902.94;5231589;28;20057;-70
2021/10/17 04:33:45;;;;;;;15.25;7.93;;;;;;;7.57;100.00;101908.66;5232629;28;20369;-70
2021/10/17 04:36:17;;;;;;;12.73;7.38;;;;;;;7.57;100.00;101905.19;5231586;28;20033;-70
2021/10/17 04:38:51;;;;;;;18.58;8.63;;;;;;;7.55;100.00;101904.47;5228587;28;20531;-70
2021/10/17 04:41:22;;;;;;;18.88;8.75;;;;;;;7.58;100.00;101899.09;5232676;28;20025;-70
2021/10/17 04:43:55;;;;;;;15.05;8.65;;;;;;;7.56;100.00;101885.28;5230591;28;20079;-70
2021/10/17 04:46:26;;;;;;;12.93;8.10;;;;;;;7.58;100.00;101888.66;5231153;28;20021;-70
2021/10/17 04:48:58;;;;;;;15.95;8.05;;;;;;;7.59;100.00;101889.50;5232979;28;20033;-71
2021/10/17 04:51:29;;;;;;;16.40;8.35;;;;;;;7.56;100.00;101891.31;5233277;28;20553;-71
2021/10/17 04:54:00;;;;;;;16.52;8.63;;;;;;;7.56;100.00;101896.53;5229180;28;20048;-70
2021/10/17 04:56:32;;;;;;;20.38;8.93;;;;;;;7.55;100.00;101889.66;5229569;28;20033;-71
2021/10/17 04:59:03;;;;;;;16.63;8.15;;;;;;;7.56;100.00;101896.53;5232805;28;20103;-70
2021/10/17 05:01:34;;;;;;;16.17;8.20;;;;;;;7.55;100.00;101894.88;5231385;28;20044;-70
2021/10/17 05:04:05;;;;;;;18.17;8.55;;;;;;;7.56;100.00;101899.16;5230686;28;20036;-70
2021/10/17 05:06:37;;;;;;;12.05;7.60;;;;;;;7.56;100.00;101891.31;5227666;28;20036;-71
2021/10/17 05:09:08;;;;;;;18.90;8.85;;;;;;;7.61;100.00;101890.22;5229656;28;20036;-70
2021/10/17 05:11:39;;;;;;;17.30;8.18;;;;;;;7.59;100.00;101894.69;5232187;28;20056;-71
2021/10/17 05:14:10;;;;;;;13.48;7.53;;;;;;;7.62;100.00;101897.16;5230685;28;20017;-70
2021/10/17 05:16:42;;;;;;;14.02;8.10;;;;;;;7.51;100.00;101888.16;5231777;28;20037;-71
2021/10/17 05:19:14;;;;;;;18.35;8.90;;;;;;;7.63;100.00;101896.22;5232244;28;20560;-70
2021/10/17 05:21:45;;;;;;;16.52;8.55;;;;;;;7.63;100.00;101897.03;5232419;28;20047;-70
2021/10/17 05:24:16;;;;;;;13.90;8.05;;;;;;;7.67;100.00;101889.91;5229725;28;20029;-70
2021/10/17 05:26:48;;;;;;;15.55;8.68;;;;;;;7.67;100.00;101895.13;5235091;28;20025;-70
2021/10/17 05:29:19;;;;;;;21.45;8.55;;;;;;;7.67;100.00;101893.34;5234478;28;20033;-70
2021/10/17 05:31:50;;;;;;;17.73;8.80;;;;;;;7.69;100.00;101907.16;5235838;28;20050;-70
2021/10/17 05:34:21;;;;;;;17.02;8.43;;;;;;;7.71;100.00;101904.44;5236414;28;20036;-70
2021/10/17 05:36:53;;;;;;;14.40;8.25;;;;;;;7.74;100.00;101905.13;5233448;28;20025;-70
2021/10/17 05:39:24;;;;;;;15.18;8.10;;;;;;;7.74;100.00;101904.28;5230203;28;20038;-71
2021/10/17 05:41:55;;;;;;;15.75;8.55;;;;;;;7.74;100.00;101909.50;5233130;28;20026;-70
2021/10/17 05:44:26;;;;;;;12.93;8.05;;;;;;;7.84;100.00;101913.28;5227454;28;20135;-70
2021/10/17 05:46:58;;;;;;;15.82;7.85;;;;;;;7.82;100.00;101914.28;5227129;28;20029;-70
2021/10/17 05:49:29;;;;;;;16.23;8.50;;;;;;;7.90;100.00;101922.53;5229002;28;20122;-70
2021/10/17 05:52:00;;;;;;;14.93;8.02;;;;;;;7.90;100.00;101920.75;5229014;28;20040;-70
2021/10/17 05:54:32;;;;;;;16.63;8.82;;;;;;;7.84;100.00;101918.50;5230871;28;20040;-70
2021/10/17 05:57:03;;;;;;;15.10;8.15;;;;;;;7.80;100.00;101924.78;5227023;28;20029;-70
2021/10/17 05:59:34;;;;;;;14.65;8.20;;;;;;;7.87;100.00;101922.69;5225857;28;20135;-70
2021/10/17 06:02:06;;;;;;;14.63;8.48;;;;;;;7.87;100.00;101920.91;5231187;28;20044;-71
2021/10/17 06:04:38;;;;;;;14.15;8.45;;;;;;;7.85;100.00;101928.00;5234398;28;20104;-70
2021/10/17 06:07:10;;;;;;;12.25;8.15;;;;;;;7.84;100.00;101926.31;5232255;28;20467;-70
2021/10/17 06:09:42;;;;;;;21.48;9.82;;;;;;;7.74;100.00;101931.19;5232768;28;20507;-71
2021/10/17 06:12:13;;;;;;;12.18;7.95;;;;;;;7.74;100.00;101925.16;5231104;28;20136;-71
2021/10/17 06:14:44;;;;;;;15.57;8.00;;;;;;;7.73;100.00;101934.75;5233483;28;20640;-71
2021/10/17 06:17:15;;;;;;;20.05;8.55;;;;;;;7.76;100.00;101933.72;5230763;28;20040;-70
2021/10/17 06:19:47;;;;;;;18.48;9.18;;;;;;;7.79;100.00;101938.75;5230411;28;20028;-71
2021/10/17 06:22:18;;;;;;;17.88;9.02;;;;;;;7.77;100.00;101935.41;5234818;28;20029;-71
2021/10/17 06:24:49;;;;;;;15.57;8.25;;;;;;;7.77;100.00;101944.09;5231307;28;20450;-70
2021/10/17 06:27:21;;;;;;;12.98;9.18;;;;;;;7.75;100.00;101932.03;5233180;28;20021;-70
2021/10/17 06:29:52;;;;;;;18.88;8.95;;;;;;;7.78;100.00;101939.69;5234813;28;20499;-70
2021/10/17 06:32:23;;;;;;;14.13;8.82;;;;;;;7.76;100.00;101941.53;5231361;28;20029;-70
2021/10/17 06:34:55;;;;;;;17.20;9.05;;;;;;;7.81;100.00;101949.97;5232051;28;20021;-71
2021/10/17 06:37:26;;;;;;;14.18;9.00;;;;;;;7.89;100.00;101957.38;5233261;28;20025;-70
2021/10/17 06:39:57;;;;;;;15.45;8.65;;;;;;;7.91;100.00;101966.78;5231718;28;20063;-71
2021/10/17 06:42:29;;;;;;;17.73;9.38;;;;;;;8.00;100.00;101962.84;5231195;28;20758;-70
2021/10/17 06:45:00;;;;;;;14.85;8.50;;;;;;;8.00;100.00;101968.91;5230888;28;20455;-71
2021/10/17 06:47:31;;;;;;;15.70;8.88;;;;;;;7.99;100.00;101963.75;5226611;28;20017;-71
2021/10/17 06:50:03;;;;;;;15.25;9.32;;;;;;;7.92;100.00;101955.44;5230930;28;20033;-71
2021/10/17 06:52:34;;;;;;;14.15;8.50;;;;;;;7.94;100.00;101966.63;5226738;28;20022;-71
2021/10/17 06:55:06;;;;;;;15.45;9.05;;;;;;;7.98;100.00;101962.91;5223985;28;20087;-70
2021/10/17 06:57:37;;;;;;;17.40;8.52;;;;;;;8.01;100.00;101970.56;5233495;28;20053;-71
2021/10/17 07:00:09;;;;;;;15.73;7.97;;;;;;;8.02;100.00;101956.59;5229586;28;20057;-71
2021/10/17 07:02:40;;;;;;;17.40;8.38;;;;;;;8.05;100.00;101960.78;5228518;28;20258;-70
2021/10/17 07:05:12;;;;;;;14.60;8.77;;;;;;;8.04;100.00;101953.91;5231060;28;20087;-70
2021/10/17 07:07:43;;;;;;;16.92;9.55;;;;;;;8.08;100.00;101947.59;5229258;28;20545;-70
2021/10/17 07:10:14;;;;;;;16.17;8.77;;;;;;;8.05;100.00;101945.97;5231435;28;20426;-70
2021/10/17 07:12:45;;;;;;;16.92;8.77;;;;;;;8.13;100.00;101952.53;5233157;28;20495;-71
2021/10/17 07:15:17;;;;;;;19.15;9.38;;;;;;;8.17;100.00;101960.09;5233786;28;20030;-71
2021/10/17 07:17:48;;;;;;;13.43;8.95;;;;;;;8.22;100.00;101959.84;5231039;28;20033;-70
2021/10/17 07:20:19;;;;;;;12.38;8.27;;;;;;;8.21;100.00;101938.09;5215001;28;20427;-70
2021/10/17 07:22:51;;;;;;;17.38;8.35;;;;;;;8.35;100.00;101957.38;5214822;28;20606;-71
2021/10/17 07:25:22;;;;;;;18.30;8.93;;;;;;;8.39;100.00;101964.97;5226460;28;20116;-71
2021/10/17 07:27:53;;;;;;;15.93;7.72;;;;;;;8.47;100.00;101961.91;5233850;28;20029;-70
2021/10/17 07:30:25;;;;;;;18.27;9.38;;;;;;;8.53;100.00;101966.78;5230575;28;20116;-71
2021/10/17 07:32:56;;;;;;;15.68;8.82;;;;;;;8.67;100.00;101979.03;5230135;28;20048;-70
2021/10/17 07:35:28;;;;;;;17.05;8.38;;;;;;;8.72;100.00;101983.06;5231339;28;20637;-71
2021/10/17 07:38:00;;;;;;;14.40;7.90;;;;;;;8.81;100.00;101981.69;5230004;28;20407;-71
2021/10/17 07:40:31;;;;;;;14.35;9.35;;;;;;;8.88;100.00;101984.78;5224870;28;20030;-70
2021/10/17 07:43:03;;;;;;;17.20;8.82;;;;;;;8.97;100.00;101999.91;5228765;28;20467;-70
2021/10/17 07:45:34;;;;;;;15.18;8.38;;;;;;;9.02;100.00;101998.72;5231127;28;20021;-71
2021/10/17 07:48:09;;;;;;;16.55;9.15;;;;;;;9.09;100.00;101996.56;5231942;28;20029;-70
2021/10/17 07:50:40;;;;;;;16.63;8.75;;;;;;;9.11;100.00;101999.09;5226092;28;20095;-70
2021/10/17 07:53:12;;;;;;;15.00;9.00;;;;;;;9.19;100.00;101987.22;5232410;28;20030;-70
2021/10/17 07:55:43;;;;;;;15.60;8.40;;;;;;;9.26;100.00;101988.53;5231970;28;20045;-71
2021/10/17 07:58:15;;;;;;;12.63;8.13;;;;;;;9.34;100.00;101995.91;5230191;28;20033;-71
2021/10/17 08:00:46;;;;;;;13.52;8.57;;;;;;;9.36;100.00;102001.91;5231160;28;20025;-70
2021/10/17 08:03:17;;;;;;;14.88;8.25;;;;;;;9.47;100.00;101994.22;5231352;28;20033;-70
2021/10/17 08:05:49;;;;;;;17.20;8.40;;;;;;;9.53;100.00;101997.41;5232364;28;20032;-71
2021/10/17 08:08:20;;;;;;;14.57;8.90;;;;;;;9.59;100.00;101999.66;5230882;28;20435;-72
2021/10/17 08:10:51;;;;;;;12.38;8.68;;;;;;;9.66;100.00;101990.44;5227338;28;20506;-70
2021/10/17 08:13:24;;;;;;;13.20;8.07;;;;;;;9.74;100.00;101996.06;5229790;28;20076;-70
2021/10/17 08:15:56;;;;;;;18.55;8.15;;;;;;;9.75;100.00;101988.09;5231365;28;20108;-70
2021/10/17 08:18:27;;;;;;;16.73;8.23;;;;;;;9.83;100.00;101992.03;5228505;28;20530;-71
2021/10/17 08:20:59;;;;;;;14.63;8.40;;;;;;;9.78;100.00;101987.09;5229667;28;20100;-70
2021/10/17 08:23:30;;;;;;;15.70;8.60;;;;;;;9.88;100.00;101990.78;5230457;28;20029;-70
2021/10/17 08:26:02;;;;;;;14.90;7.38;;;;;;;9.91;100.00;101995.81;5227673;28;20821;-70
2021/10/17 08:28:33;;;;;;;13.15;7.80;;;;;;;9.95;100.00;101989.44;5229738;28;20107;-70
2021/10/17 08:31:06;;;;;;;16.60;8.57;;;;;;;9.99;100.00;101990.94;5231456;28;20055;-71
2021/10/17 08:33:37;;;;;;;15.15;8.25;;;;;;;10.03;100.00;101994.19;5230083;28;20052;-70
2021/10/17 08:36:09;;;;;;;14.02;7.45;;;;;;;10.08;100.00;101994.75;5209586;28;20113;-70
2021/10/17 08:38:41;;;;;;;12.95;7.68;;;;;;;10.15;100.00;101996.06;5228673;28;20120;-70
2021/10/17 08:41:15;;;;;;;17.33;8.43;;;;;;;10.17;100.00;101995.94;5229163;28;20056;-70
2021/10/17 08:43:46;;;;;;;18.15;8.20;;;;;;;10.24;100.00;101992.00;5227868;28;20502;-70
2021/10/17 08:46:18;;;;;;;16.20;7.93;;;;;;;10.30;100.00;101988.16;5229852;28;20136;-70
2021/10/17 08:48:54;;;;;;;15.82;8.52;;;;;;;10.43;100.00;101992.50;5232814;28;20115;-70
2021/10/17 08:51:26;;;;;;;14.60;7.60;;;;;;;10.44;100.00;101993.31;5229027;28;20391;-70
2021/10/17 08:53:59;;;;;;;16.45;8.30;;;;;;;10.45;100.00;101990.63;5230859;28;20036;-70
2021/10/17 08:56:30;;;;;;;16.40;8.47;;;;;;;10.60;100.00;101993.97;5226371;28;20044;-70
2021/10/17 08:59:02;;;;;;;14.85;7.82;;;;;;;10.60;100.00;101993.97;5228758;28;20431;-70
2021/10/17 09:01:35;;;;;;;15.02;7.78;;;;;;;10.67;100.00;102000.50;5224617;28;20456;-70
2021/10/17 09:04:09;;;;;;;15.13;7.68;;;;;;;10.75;100.00;101992.13;5223875;28;20075;-70
2021/10/17 09:06:41;;;;;;;15.52;7.40;;;;;;;10.81;100.00;101990.88;5229114;28;20100;-70
2021/10/17 09:09:18;;;;;;;13.73;7.38;;;;;;;10.85;100.00;101993.19;5234642;28;20087;-70
2021/10/17 09:11:52;;;;;;;13.65;7.85;;;;;;;10.97;100.00;101991.50;5232109;28;20049;-70
2021/10/17 09:14:27;;;;;;;17.70;8.02;;;;;;;11.03;100.00;101998.13;5229231;28;20532;-70
2021/10/17 09:16:59;;;;;;;17.13;7.60;;;;;;;11.06;100.00;101988.28;5227315;28;20494;-70
2021/10/17 09:19:32;;;;;;;15.75;8.20;;;;;;;11.21;100.00;101994.22;5233326;28;20029;-70
2021/10/17 09:22:06;;;;;;;15.93;7.28;;;;;;;11.34;100.00;101987.19;5234403;28;20052;-70
2021/10/17 09:24:40;;;;;;;14.70;6.80;;;;;;;11.40;100.00;101980.66;5233260;28;20029;-70
2021/10/17 09:27:13;;;;;;;13.95;6.90;;;;;;;11.43;100.00;101983.91;5230799;28;20033;-71
2021/10/17 09:29:52;;;;;;;13.70;7.45;;;;;;;11.50;100.00;101989.59;5233633;28;20158;-70
2021/10/17 09:32:27;;;;;;;12.07;7.15;;;;;;;11.43;100.00;101994.41;5224720;28;20487;-71
2021/10/17 09:35:06;;;;;;;11.95;6.90;;;;;;;11.50;100.00;101980.88;5228337;28;20041;-70
2021/10/17 09:37:42;;;;;;;13.40;7.63;;;;;;;11.55;100.00;101991.88;5225247;28;20021;-70
2021/10/17 09:40:23;;;;;;;16.92;6.53;;;;;;;11.61;100.00;101978.34;5222579;28;20138;-71
2021/10/17 09:43:13;;;;;;;16.73;7.18;;;;;;;11.80;100.00;101990.97;5225780;28;20021;-70
2021/10/17 09:45:44;;;;;;;14.05;6.80;;;;;;;11.78;100.00;101983.22;5231753;28;20108;-71
2021/10/17 09:48:29;;;;;;;15.27;6.95;;;;;;;11.97;100.00;101984.53;5229073;28;20044;-70
2021/10/17 09:51:05;;;;;;;16.85;6.90;;;;;;;11.96;100.00;101983.69;5231823;28;20032;-70
2021/10/17 09:53:39;;;;;;;12.73;6.97;;;;;;;12.02;100.00;101987.69;5227123;28;20033;-71
2021/10/17 09:56:31;;;;;;;13.43;6.88;;;;;;;12.20;100.00;101988.97;5226065;28;20061;-70
2021/10/17 09:59:07;;;;;;;13.88;6.45;;;;;;;12.22;100.00;101992.31;5233861;28;20035;-70
2021/10/17 10:01:41;;;;;;;11.68;6.78;;;;;;;12.24;100.00;101992.22;5228243;28;20037;-70
2021/10/17 10:04:12;;;;;;;12.40;6.63;;;;;;;12.23;100.00;101990.50;5229390;28;20382;-70
2021/10/17 10:06:45;;;;;;;12.00;6.32;;;;;;;12.29;100.00;101980.41;5230453;28;20020;-71
2021/10/17 10:09:19;;;;;;;14.57;6.20;;;;;;;12.51;100.00;101981.44;5232421;28;20017;-71
2021/10/17 10:11:51;;;;;;;11.73;5.90;;;;;;;12.52;100.00;101986.56;5229676;28;20058;-70
2021/10/17 10:14:24;;;;;;;12.50;6.22;;;;;;;12.58;100.00;101990.56;5231439;28;20055;-70
2021/10/17 10:16:58;;;;;;;13.07;6.25;;;;;;;12.64;100.00;101987.44;5232264;28;20026;-70
2021/10/17 10:19:31;;;;;;;13.27;6.70;;;;;;;12.67;100.00;101992.47;5233235;28;20071;-70
2021/10/17 10:22:03;;;;;;;15.07;6.75;;;;;;;12.70;100.00;101997.50;5227168;28;20033;-70
2021/10/17 10:24:34;;;;;;;11.85;6.18;;;;;;;12.75;100.00;101999.78;5219154;28;20029;-72
2021/10/17 10:27:07;;;;;;;11.80;5.63;;;;;;;12.77;100.00;102000.53;5230532;28;20025;-70
2021/10/17 10:29:38;;;;;;;14.48;6.75;;;;;;;12.81;100.00;101997.53;5230504;28;20030;-70
2021/10/17 10:32:21;;;;;;;16.00;6.28;;;;;;;12.93;100.00;101993.13;5234396;28;20364;-71
2021/10/17 10:34:54;;;;;;;13.45;6.18;;;;;;;12.83;100.00;101992.16;5227392;28;20087;-70
2021/10/17 10:37:30;;;;;;;11.02;5.90;;;;;;;12.87;100.00;101997.06;5233769;28;20471;-70
2021/10/17 10:40:04;;;;;;;10.90;5.50;;;;;;;13.02;100.00;101995.03;5232634;28;20510;-70
2021/10/17 10:42:42;;;;;;;13.15;6.15;;;;;;;13.01;100.00;102001.25;5231251;28;20040;-70
2021/10/17 10:45:19;;;;;;;10.77;5.88;;;;;;;13.12;100.00;101995.19;5230690;28;20129;-70
2021/10/17 10:48:12;;;;;;;11.93;5.80;;;;;;;13.28;100.00;101992.22;5232223;28;20373;-70
2021/10/17 10:50:52;;;;;;;13.10;6.40;;;;;;;13.21;100.00;101991.00;5231556;28;20391;-71
2021/10/17 10:53:51;;;;;;;14.57;5.93;;;;;;;13.37;100.00;101992.34;5234195;28;20029;-71
2021/10/17 10:56:37;;;;;;;11.07;5.78;;;;;;;13.39;100.00;101984.34;5230303;28;20365;-71
2021/10/17 10:59:09;;;;;;;10.82;5.60;;;;;;;13.34;100.00;101989.13;5227374;28;20029;-71
2021/10/17 11:01:50;;;;;;;8.70;5.35;;;;;;;13.49;100.00;101987.91;5231543;28;20395;-70
2021/10/17 11:04:37;;;;;;;9.60;5.00;;;;;;;13.60;100.00;101989.72;5228537;28;20502;-70
2021/10/17 11:07:27;;;;;;;14.63;6.32;;;;;;;13.61;100.00;101988.75;5223511;28;20764;-70
2021/10/17 11:10:34;;;;;;;11.15;5.45;;;;;;;13.71;100.00;101992.28;5228676;28;20034;-70
2021/10/17 11:13:08;;;;;;;9.50;5.70;;;;;;;13.55;100.00;101990.06;5230137;28;20290;-70
2021/10/17 11:15:40;;;;;;;11.07;5.50;;;;;;;13.55;100.00;101983.94;5226354;28;20441;-70
2021/10/17 11:18:12;;;;;;;10.52;5.18;;;;;;;13.60;100.00;101977.38;5229732;28;20070;-70
2021/10/17 11:20:47;;;;;;;11.20;5.43;;;;;;;13.69;100.00;101975.81;5231344;28;20029;-70
2021/10/17 11:23:25;;;;;;;9.60;5.20;;;;;;;13.75;98.99;101975.31;5231609;28;20415;-70
2021/10/17 11:26:10;;;;;;;10.32;5.32;;;;;;;13.83;99.34;101975.53;5232506;28;20017;-71
2021/10/17 11:28:49;;;;;;;9.85;5.10;;;;;;;13.91;99.07;101969.66;5230239;28;20028;-70
2021/10/17 11:31:23;;;;;;;11.85;4.70;;;;;;;13.87;98.65;101965.59;5232696;28;20018;-71
2021/10/17 11:33:56;;;;;;;9.55;4.80;;;;;;;13.85;96.69;101954.31;5229205;28;20021;-70
2021/10/17 11:36:28;;;;;;;9.57;4.65;;;;;;;13.94;97.15;101963.28;5230736;28;20018;-70
2021/10/17 11:38:59;;;;;;;11.45;4.85;;;;;;;14.00;100.00;101957.50;5229349;28;20057;-70